createdAt,value
2024-05-09T00:00:41.257Z,9.67
2024-05-09T00:03:10.421Z,8.53
2024-05-09T00:05:40.858Z,8.63
2024-05-09T00:08:09.368Z,9.30
2024-05-09T00:10:38.780Z,8.73
2024-05-09T00:13:08.001Z,8.05
2024-05-09T00:15:35.978Z,8.67
2024-05-09T00:18:04.565Z,8.80
2024-05-09T00:20:38.373Z,8.40
2024-05-09T00:23:12.319Z,7.77
2024-05-09T00:25:42.684Z,8.27
2024-05-09T00:28:10.110Z,8.43
2024-05-09T00:30:37.658Z,7.83
2024-05-09T00:33:07.167Z,8.13
2024-05-09T00:35:35.551Z,7.50
2024-05-09T00:38:02.845Z,8.33
2024-05-09T00:40:40.979Z,8.57
2024-05-09T00:43:14.686Z,7.77
2024-05-09T00:45:43.634Z,7.90
2024-05-09T00:48:15.195Z,7.73
2024-05-09T00:50:46.033Z,7.77
2024-05-09T00:53:15.734Z,7.40
2024-05-09T00:55:43.821Z,7.00
2024-05-09T00:58:14.563Z,7.00
2024-05-09T01:00:42.063Z,7.20
2024-05-09T01:03:13.676Z,6.83
2024-05-09T01:05:42.993Z,7.03
2024-05-09T01:08:11.190Z,6.97
2024-05-09T01:10:39.515Z,6.80
2024-05-09T01:13:07.784Z,7.43
2024-05-09T01:15:35.860Z,7.47
2024-05-09T01:18:09.775Z,7.23
2024-05-09T01:20:42.069Z,7.27
2024-05-09T01:23:12.434Z,7.30
2024-05-09T01:25:40.200Z,7.73
2024-05-09T01:28:07.635Z,7.13
2024-05-09T01:30:37.096Z,7.80
2024-05-09T01:33:08.044Z,6.80
2024-05-09T01:35:37.368Z,7.87
2024-05-09T01:38:05.117Z,7.67
2024-05-09T01:40:37.858Z,7.20
2024-05-09T01:43:08.899Z,7.30
2024-05-09T01:45:37.059Z,7.27
2024-05-09T01:48:04.754Z,7.63
2024-05-09T01:50:38.270Z,7.67
2024-05-09T01:53:13.847Z,7.80
2024-05-09T01:55:41.710Z,7.07
2024-05-09T01:58:09.576Z,7.47
2024-05-09T02:00:40.906Z,8.00
2024-05-09T02:03:14.811Z,7.70
2024-05-09T02:05:48.233Z,7.50
2024-05-09T02:08:24.653Z,7.03
2024-05-09T02:10:51.827Z,7.70
2024-05-09T02:13:18.955Z,7.20
2024-05-09T02:15:46.145Z,6.87
2024-05-09T02:18:14.006Z,6.87
2024-05-09T02:20:42.522Z,6.47
2024-05-09T02:23:10.299Z,7.47
2024-05-09T02:25:37.883Z,6.17
2024-05-09T02:28:05.273Z,6.97
2024-05-09T02:30:40.227Z,6.43
2024-05-09T02:33:11.676Z,6.30
2024-05-09T02:35:41.337Z,6.17
2024-05-09T02:38:09.869Z,6.47
2024-05-09T02:40:39.126Z,5.87
2024-05-09T02:43:09.808Z,6.00
2024-05-09T02:45:38.303Z,6.27
2024-05-09T02:48:06.191Z,5.80
2024-05-09T02:50:38.342Z,5.70
2024-05-09T02:53:14.449Z,5.63
2024-05-09T02:55:42.533Z,5.40
2024-05-09T02:58:10.623Z,4.97
2024-05-09T03:00:41.080Z,5.30
2024-05-09T03:03:12.619Z,5.10
2024-05-09T03:05:42.189Z,5.37
2024-05-09T03:08:09.704Z,4.90
2024-05-09T03:10:38.715Z,5.27
2024-05-09T03:13:13.277Z,5.17
2024-05-09T03:15:42.121Z,4.80
2024-05-09T03:18:09.542Z,5.13
2024-05-09T03:20:37.336Z,4.80
2024-05-09T03:23:06.506Z,4.80
2024-05-09T03:25:34.040Z,5.37
2024-05-09T03:28:01.467Z,5.00
2024-05-09T03:30:39.048Z,4.87
2024-05-09T03:33:15.545Z,5.07
2024-05-09T03:35:44.297Z,4.60
2024-05-09T03:38:11.623Z,4.67
2024-05-09T03:40:48.622Z,4.28
2024-05-09T03:43:16.827Z,4.60
2024-05-09T03:45:43.879Z,4.37
2024-05-09T03:48:11.151Z,4.27
2024-05-09T03:50:38.620Z,3.80
2024-05-09T03:53:06.055Z,3.97
2024-05-09T03:55:33.108Z,3.57
2024-05-09T03:58:00.231Z,3.33
2024-05-09T04:00:35.487Z,3.20
2024-05-09T04:03:08.765Z,3.40
2024-05-09T04:05:40.031Z,3.17
2024-05-09T04:08:07.899Z,3.17
2024-05-09T04:10:35.637Z,3.00
2024-05-09T04:13:04.058Z,3.00
2024-05-09T04:15:31.758Z,3.43
2024-05-09T04:17:59.327Z,3.40
2024-05-09T04:22:56.709Z,2.83
2024-05-09T04:25:23.768Z,3.07
2024-05-09T04:27:50.791Z,3.40
2024-05-09T04:30:25.774Z,4.40
2024-05-09T04:33:01.115Z,4.17
2024-05-09T04:35:28.608Z,3.90
2024-05-09T04:37:55.694Z,3.97
2024-05-09T04:40:30.775Z,4.13
2024-05-09T04:43:01.059Z,4.20
2024-05-09T04:45:28.115Z,5.87
2024-05-09T04:47:55.352Z,5.90
2024-05-09T04:50:30.195Z,5.83
2024-05-09T04:53:03.906Z,5.33
2024-05-09T04:55:31.340Z,6.10
2024-05-09T04:57:58.388Z,6.47
2024-05-09T05:00:34.537Z,6.50
2024-05-09T05:03:07.441Z,6.33
2024-05-09T05:05:38.119Z,6.47
2024-05-09T05:08:06.138Z,7.87
2024-05-09T05:10:36.021Z,8.83
2024-05-09T05:13:18.330Z,9.53
2024-05-09T05:15:47.479Z,10.73
2024-05-09T05:18:16.109Z,13.10
2024-05-09T05:20:43.696Z,14.80
2024-05-09T05:23:15.489Z,14.23
2024-05-09T05:25:42.947Z,15.60
2024-05-09T05:28:10.855Z,14.63
2024-05-09T05:30:38.687Z,15.53
2024-05-09T05:33:07.083Z,14.90
2024-05-09T05:35:35.074Z,15.40
2024-05-09T05:38:03.275Z,15.80
2024-05-09T05:40:37.175Z,15.83
2024-05-09T05:43:06.390Z,14.90
2024-05-09T05:45:33.389Z,15.47
2024-05-09T05:48:04.219Z,15.87
2024-05-09T05:50:36.029Z,15.87
2024-05-09T05:53:09.122Z,15.30
2024-05-09T05:55:37.849Z,14.90
2024-05-09T05:58:07.432Z,13.93
2024-05-09T06:00:38.669Z,13.27
2024-05-09T06:03:12.331Z,14.03
2024-05-09T06:05:40.759Z,12.40
2024-05-09T06:08:08.574Z,12.70
2024-05-09T06:10:39.377Z,11.95
2024-05-09T06:13:11.702Z,12.90
2024-05-09T06:15:40.061Z,11.77
2024-05-09T06:18:08.968Z,11.88
2024-05-09T06:20:38.180Z,11.57
2024-05-09T06:23:06.645Z,11.40
2024-05-09T06:25:35.101Z,12.02
2024-05-09T06:28:03.247Z,11.55
2024-05-09T06:30:37.870Z,10.80
2024-05-09T06:33:09.928Z,11.27
2024-05-09T06:35:38.377Z,11.80
2024-05-09T06:38:06.574Z,12.68
2024-05-09T06:40:37.879Z,12.63
2024-05-09T06:43:18.847Z,12.85
2024-05-09T06:45:53.108Z,14.27
2024-05-09T06:48:21.442Z,15.23
2024-05-09T06:50:50.132Z,15.57
2024-05-09T06:53:17.962Z,14.93
2024-05-09T06:55:45.233Z,15.50
2024-05-09T06:58:12.384Z,16.17
2024-05-09T07:00:41.319Z,17.27
2024-05-09T07:03:16.992Z,16.52
2024-05-09T07:05:47.464Z,16.45
2024-05-09T07:08:15.912Z,16.00
2024-05-09T07:10:43.190Z,15.43
2024-05-09T07:13:11.709Z,16.35
2024-05-09T07:15:39.585Z,16.38
2024-05-09T07:18:17.851Z,17.20
2024-05-09T07:20:47.011Z,16.45
2024-05-09T07:23:14.503Z,17.02
2024-05-09T07:25:42.099Z,17.05
2024-05-09T07:28:20.587Z,18.10
2024-05-09T07:30:47.957Z,17.60
2024-05-09T07:33:20.052Z,16.88
2024-05-09T07:35:48.721Z,17.58
2024-05-09T07:38:15.837Z,18.20
2024-05-09T07:40:43.293Z,17.02
2024-05-09T07:43:14.421Z,17.27
2024-05-09T07:45:50.736Z,17.58
2024-05-09T07:52:37.302Z,17.90
2024-05-09T07:53:47.244Z,16.73
2024-05-09T07:56:18.298Z,18.88
2024-05-09T07:58:46.529Z,15.85
2024-05-09T08:01:13.721Z,14.52
2024-05-09T08:03:41.033Z,14.77
2024-05-09T08:06:08.223Z,15.60
2024-05-09T08:08:35.261Z,15.13
2024-05-09T08:11:02.858Z,16.90
2024-05-09T08:13:29.981Z,17.63
2024-05-09T08:15:57.176Z,17.20
2024-05-09T08:18:24.343Z,16.38
2024-05-09T08:20:52.158Z,15.70
2024-05-09T08:23:19.174Z,16.70
2024-05-09T08:25:46.247Z,17.02
2024-05-09T08:28:13.445Z,17.58
2024-05-09T08:30:40.739Z,12.90
2024-05-09T08:33:08.309Z,11.63
2024-05-09T08:35:36.082Z,11.57
2024-05-09T08:38:04.589Z,10.05
2024-05-09T08:40:35.763Z,9.43
2024-05-09T08:43:12.303Z,9.00
2024-05-09T08:45:43.930Z,10.75
2024-05-09T08:48:15.518Z,9.82
2024-05-09T08:50:44.805Z,10.02
2024-05-09T08:53:12.917Z,10.80
2024-05-09T08:55:43.296Z,11.88
2024-05-09T08:58:16.647Z,11.02
2024-05-09T09:00:45.204Z,11.80
2024-05-09T09:03:18.905Z,12.35
2024-05-09T09:06:14.652Z,11.70
2024-05-09T09:08:41.891Z,11.40
2024-05-09T09:11:08.918Z,11.93
2024-05-09T09:13:35.966Z,13.50
2024-05-09T09:16:04.112Z,10.00
2024-05-09T09:18:32.952Z,10.45
2024-05-09T09:21:01.011Z,11.25
2024-05-09T09:23:30.221Z,10.77
2024-05-09T09:26:00.861Z,10.93
2024-05-09T09:28:28.255Z,11.07
2024-05-09T09:31:01.593Z,10.63
2024-05-09T09:33:31.720Z,10.80
2024-05-09T09:35:59.365Z,10.52
2024-05-09T09:38:29.029Z,10.05
2024-05-09T09:40:56.156Z,9.23
2024-05-09T09:43:23.889Z,9.65
2024-05-09T09:45:53.427Z,8.18
2024-05-09T09:48:22.899Z,8.48
2024-05-09T09:50:52.656Z,7.63
2024-05-09T09:53:19.878Z,6.22
2024-05-09T09:55:48.447Z,7.53
2024-05-09T09:58:17.628Z,7.65
2024-05-09T10:00:45.624Z,7.72
2024-05-09T10:03:13.134Z,7.85
2024-05-09T10:05:43.253Z,7.93
2024-05-09T10:08:13.935Z,8.13
2024-05-09T10:10:46.754Z,7.93
2024-05-09T10:13:14.002Z,8.57
2024-05-09T10:15:59.242Z,7.90
2024-05-09T10:18:36.700Z,7.30
2024-05-09T10:21:16.186Z,7.47
2024-05-09T10:24:00.786Z,7.70
2024-05-09T10:26:38.474Z,7.75
2024-05-09T10:29:15.646Z,7.22
2024-05-09T10:31:44.617Z,8.32
2024-05-09T10:34:20.652Z,7.57
2024-05-09T10:36:55.221Z,7.43
2024-05-09T10:39:22.598Z,7.72
2024-05-09T10:41:50.098Z,7.93
2024-05-09T10:44:18.596Z,7.38
2024-05-09T10:46:46.427Z,6.85
2024-05-09T10:49:17.175Z,6.68
2024-05-09T10:51:45.398Z,7.63
2024-05-09T10:54:12.524Z,7.78
2024-05-09T10:56:39.645Z,7.35
2024-05-09T10:59:06.789Z,7.30
2024-05-09T11:01:33.887Z,8.15
2024-05-09T11:04:03.854Z,8.18
2024-05-09T11:06:31.180Z,8.52
2024-05-09T11:08:58.358Z,8.40
2024-05-09T11:11:26.648Z,8.98
2024-05-09T11:13:53.727Z,8.68
2024-05-09T11:16:21.570Z,8.98
2024-05-09T11:18:58.570Z,8.57
2024-05-09T11:21:26.250Z,7.63
2024-05-09T11:23:53.466Z,8.15
2024-05-09T11:26:22.331Z,7.82
2024-05-09T11:28:51.037Z,7.53
2024-05-09T11:31:18.678Z,6.20
2024-05-09T11:33:47.014Z,6.32
2024-05-09T11:36:14.673Z,7.07
2024-05-09T11:38:41.779Z,6.50
2024-05-09T11:41:08.857Z,6.55
2024-05-09T11:43:35.901Z,6.93
2024-05-09T11:46:03.824Z,6.85
2024-05-09T11:48:32.117Z,7.25
2024-05-09T11:50:59.560Z,6.90
2024-05-09T11:53:26.681Z,6.35
2024-05-09T11:55:54.041Z,6.70
2024-05-09T11:58:23.115Z,6.60
2024-05-09T12:00:50.503Z,6.38
2024-05-09T12:03:18.534Z,6.25
2024-05-09T12:05:45.828Z,6.03
2024-05-09T12:08:13.330Z,5.95
2024-05-09T12:10:40.797Z,6.63
2024-05-09T12:13:08.247Z,6.28
2024-05-09T12:15:37.929Z,6.15
2024-05-09T12:18:07.307Z,6.85
2024-05-09T12:20:38.250Z,6.47
2024-05-09T12:23:09.385Z,7.95
2024-05-09T12:25:40.788Z,6.63
2024-05-09T12:28:08.835Z,6.25
2024-05-09T12:30:40.140Z,6.50
2024-05-09T12:33:12.739Z,7.53
2024-05-09T12:35:44.068Z,8.70
2024-05-09T12:38:15.365Z,9.20
2024-05-09T12:40:43.028Z,9.48
2024-05-09T12:43:11.458Z,9.60
2024-05-09T12:45:40.182Z,9.40
2024-05-09T12:48:12.350Z,8.05
2024-05-09T12:50:40.853Z,7.57
2024-05-09T12:53:08.269Z,7.32
2024-05-09T12:55:44.310Z,6.53
2024-05-09T12:58:22.374Z,6.50
2024-05-09T13:00:51.836Z,5.72
2024-05-09T13:03:19.387Z,6.25
2024-05-09T13:05:46.887Z,5.90
2024-05-09T13:08:14.360Z,6.82
2024-05-09T13:10:42.172Z,7.25
2024-05-09T13:13:10.895Z,6.47
2024-05-09T13:15:39.236Z,6.07
2024-05-09T13:18:07.359Z,6.85
2024-05-09T13:20:36.773Z,5.95
2024-05-09T13:23:07.219Z,6.30
2024-05-09T13:25:35.593Z,5.07
2024-05-09T13:28:04.256Z,4.65
2024-05-09T13:30:39.230Z,4.68
2024-05-09T13:33:13.711Z,4.65
2024-05-09T13:35:46.897Z,4.78
2024-05-09T13:38:17.649Z,3.35
2024-05-09T13:40:45.897Z,4.25
2024-05-09T13:43:13.410Z,5.22
2024-05-09T13:45:40.674Z,4.18
2024-05-09T13:48:10.011Z,4.88
2024-05-09T13:50:37.621Z,4.63
2024-05-09T13:53:06.923Z,4.47
2024-05-09T13:55:37.359Z,3.90
2024-05-09T13:58:04.838Z,4.25
2024-05-09T14:00:42.628Z,4.28
2024-05-09T14:03:15.893Z,3.53
2024-05-09T14:05:43.708Z,3.70
2024-05-09T14:08:11.614Z,3.45
2024-05-09T14:10:44.710Z,4.28
2024-05-09T14:13:13.221Z,4.18
2024-05-09T14:15:41.313Z,3.67
2024-05-09T14:18:12.375Z,4.25
2024-05-09T14:20:42.702Z,3.47
2024-05-09T14:23:09.983Z,3.65
2024-05-09T14:25:43.238Z,3.85
2024-05-09T14:28:12.520Z,3.58
2024-05-09T14:30:40.431Z,3.30
2024-05-09T14:33:08.878Z,3.50
2024-05-09T14:35:38.582Z,3.65
2024-05-09T14:38:07.761Z,4.10
2024-05-09T14:40:41.719Z,3.58
2024-05-09T14:43:12.722Z,3.88
2024-05-09T14:45:40.622Z,4.93
2024-05-09T14:48:08.535Z,4.00
2024-05-09T14:50:38.826Z,4.20
2024-05-09T14:53:11.359Z,4.63
2024-05-09T14:55:40.506Z,4.30
2024-05-09T14:58:13.171Z,4.15
2024-05-09T15:00:46.270Z,4.13
2024-05-09T15:03:18.211Z,4.40
2024-05-09T15:05:45.685Z,4.40
2024-05-09T15:08:12.776Z,4.03
2024-05-09T15:10:40.105Z,4.13
2024-05-09T15:13:09.659Z,4.20
2024-05-09T15:15:38.459Z,4.65
2024-05-09T15:18:06.409Z,4.43
2024-05-09T15:20:36.343Z,5.03
2024-05-09T15:23:06.215Z,5.50
2024-05-09T15:25:34.554Z,4.97
2024-05-09T15:28:01.787Z,4.30
2024-05-09T15:30:32.130Z,5.70
2024-05-09T15:33:03.370Z,5.13
2024-05-09T15:35:33.286Z,4.72
2024-05-09T15:38:03.022Z,5.47
2024-05-09T15:40:37.757Z,5.13
2024-05-09T15:43:08.692Z,5.05
2024-05-09T15:45:36.901Z,5.13
2024-05-09T15:48:04.733Z,4.40
2024-05-09T15:50:37.609Z,4.45
2024-05-09T15:53:09.223Z,3.80
2024-05-09T15:55:37.088Z,3.83
2024-05-09T15:58:05.641Z,4.28
2024-05-09T16:00:38.099Z,3.65
2024-05-09T16:03:13.974Z,4.07
2024-05-09T16:05:44.912Z,5.00
2024-05-09T16:08:13.259Z,4.00
2024-05-09T16:10:44.598Z,4.05
2024-05-09T16:13:13.282Z,4.72
2024-05-09T16:15:40.835Z,4.20
2024-05-09T16:18:08.242Z,4.68
2024-05-09T16:20:40.117Z,4.55
2024-05-09T16:23:10.392Z,4.88
2024-05-09T16:25:39.752Z,4.95
2024-05-09T16:28:09.996Z,4.50
2024-05-09T16:30:41.142Z,4.88
2024-05-09T16:33:09.270Z,4.65
2024-05-09T16:35:37.589Z,4.70
2024-05-09T16:38:06.257Z,4.95
2024-05-09T16:40:38.269Z,5.00
2024-05-09T16:43:08.997Z,4.95
2024-05-09T16:45:37.180Z,4.80
2024-05-09T16:48:05.041Z,4.85
2024-05-09T16:50:34.480Z,5.05
2024-05-09T16:53:07.069Z,4.60
2024-05-09T16:55:37.341Z,5.03
2024-05-09T16:58:06.995Z,4.93
2024-05-09T17:00:40.826Z,4.82
2024-05-09T17:03:13.180Z,5.18
2024-05-09T17:05:41.940Z,4.90
2024-05-09T17:08:09.538Z,5.95
2024-05-09T17:10:37.095Z,4.70
2024-05-09T17:13:06.191Z,4.93
2024-05-09T17:15:35.505Z,5.40
2024-05-09T17:18:04.089Z,5.10
2024-05-09T17:20:34.748Z,4.43
2024-05-09T17:23:05.521Z,5.05
2024-05-09T17:25:33.643Z,5.15
2024-05-09T17:28:07.652Z,5.20
2024-05-09T17:30:39.309Z,5.15
2024-05-09T17:33:09.831Z,4.93
2024-05-09T17:35:38.462Z,5.20
2024-05-09T17:38:06.619Z,5.57
2024-05-09T17:40:36.552Z,5.68
2024-05-09T17:43:06.922Z,4.43
2024-05-09T17:45:37.810Z,4.28
2024-05-09T17:48:05.385Z,4.72
2024-05-09T17:50:35.987Z,5.18
2024-05-09T17:53:08.737Z,4.30
2024-05-09T17:55:36.776Z,4.95
2024-05-09T17:58:05.321Z,4.82
2024-05-09T18:00:39.071Z,5.18
2024-05-09T18:03:12.358Z,4.85
2024-05-09T18:05:41.099Z,5.20
2024-05-09T18:08:08.997Z,4.97
2024-05-09T18:10:39.003Z,5.47
2024-05-09T18:13:11.381Z,5.65
2024-05-09T18:15:39.626Z,5.15
2024-05-09T18:18:07.760Z,5.55
2024-05-09T18:20:42.217Z,5.45
2024-05-09T18:23:18.775Z,5.63
2024-05-09T18:25:47.119Z,5.50
2024-05-09T18:28:15.710Z,5.38
2024-05-09T18:30:43.361Z,5.72
2024-05-09T18:33:11.563Z,5.50
2024-05-09T18:35:39.288Z,5.20
2024-05-09T18:38:06.425Z,5.78
2024-05-09T18:40:36.588Z,6.50
2024-05-09T18:43:08.043Z,6.20
2024-05-09T18:45:37.788Z,6.30
2024-05-09T18:48:06.709Z,6.25
2024-05-09T18:50:38.005Z,5.63
2024-05-09T18:53:07.880Z,6.28
2024-05-09T18:55:35.269Z,6.57
2024-05-09T18:58:03.614Z,6.60
2024-05-09T19:00:35.651Z,6.97
2024-05-09T19:03:11.564Z,6.72
2024-05-09T19:05:41.655Z,6.32
2024-05-09T19:08:09.663Z,6.50
2024-05-09T19:10:38.652Z,6.70
2024-05-09T19:13:10.828Z,6.63
2024-05-09T19:15:41.118Z,6.53
2024-05-09T19:18:09.978Z,7.30
2024-05-09T19:20:38.166Z,6.67
2024-05-09T19:23:06.530Z,7.40
2024-05-09T19:25:34.766Z,7.30
2024-05-09T19:28:03.483Z,7.47
2024-05-09T19:30:38.454Z,7.67
2024-05-09T19:33:10.213Z,6.70
2024-05-09T19:35:38.854Z,7.03
2024-05-09T19:38:06.592Z,7.13
2024-05-09T19:40:35.152Z,7.63
2024-05-09T19:43:04.238Z,7.37
2024-05-09T19:45:33.778Z,8.20
2024-05-09T19:48:02.229Z,7.80
2024-05-09T19:50:37.382Z,8.07
2024-05-09T19:53:10.350Z,8.53
2024-05-09T19:55:38.049Z,7.70
2024-05-09T19:58:07.346Z,7.87
2024-05-09T20:00:41.919Z,8.73
2024-05-09T20:03:12.290Z,7.93
2024-05-09T20:05:39.942Z,8.97
2024-05-09T20:08:07.384Z,8.50
2024-05-09T20:10:36.026Z,8.60
2024-05-09T20:13:06.662Z,8.53
2024-05-09T20:15:37.063Z,9.00
2024-05-09T20:18:05.327Z,8.73
2024-05-09T20:20:39.127Z,8.83
2024-05-09T20:23:09.995Z,8.50
2024-05-09T20:25:37.352Z,8.60
2024-05-09T20:28:06.593Z,8.37
2024-05-09T20:30:35.303Z,8.93
2024-05-09T20:33:04.926Z,8.47
2024-05-09T20:35:33.563Z,8.90
2024-05-09T20:38:02.337Z,9.83
2024-05-09T20:40:34.604Z,8.10
2024-05-09T20:43:06.002Z,8.37
2024-05-09T20:45:34.108Z,9.17
2024-05-09T20:48:01.702Z,8.77
2024-05-09T20:50:36.943Z,8.47
2024-05-09T20:53:12.884Z,8.63
2024-05-09T20:55:41.257Z,9.00
2024-05-09T20:58:09.921Z,9.53
2024-05-09T21:00:41.029Z,8.97
2024-05-09T21:03:11.964Z,8.43
2024-05-09T21:05:39.891Z,9.13
2024-05-09T21:08:07.839Z,9.43
2024-05-09T21:10:36.995Z,9.17
2024-05-09T21:13:05.841Z,9.07
2024-05-09T21:15:33.916Z,9.13
2024-05-09T21:18:01.443Z,8.87
2024-05-09T21:20:31.585Z,9.60
2024-05-09T21:23:01.067Z,9.13
2024-05-09T21:25:28.365Z,9.10
2024-05-09T21:27:55.681Z,9.53
2024-05-09T21:30:41.512Z,8.83
2024-05-09T21:33:12.644Z,9.70
2024-05-09T21:35:42.889Z,9.07
2024-05-09T21:38:10.465Z,9.17
2024-05-09T21:40:38.307Z,9.17
2024-05-09T21:43:07.822Z,9.67
2024-05-09T21:45:38.109Z,9.57
2024-05-09T21:48:06.666Z,10.00
2024-05-09T21:50:39.897Z,9.40
2024-05-09T21:53:12.746Z,9.70
2024-05-09T21:55:40.498Z,9.00
2024-05-09T21:58:08.026Z,9.37
2024-05-09T22:00:38.254Z,10.03
2024-05-09T22:03:11.002Z,9.17
2024-05-09T22:05:42.358Z,8.80
2024-05-09T22:08:11.100Z,9.97
2024-05-09T22:10:38.552Z,9.67
2024-05-09T22:13:09.158Z,9.93
2024-05-09T22:15:38.620Z,9.13
2024-05-09T22:18:08.595Z,9.10
2024-05-09T22:20:39.321Z,9.47
2024-05-09T22:23:09.125Z,9.60
2024-05-09T22:25:37.264Z,9.90
2024-05-09T22:28:05.065Z,9.37
2024-05-09T22:30:37.128Z,9.33
2024-05-09T22:33:08.440Z,9.67
2024-05-09T22:35:39.584Z,9.23
2024-05-09T22:38:06.811Z,10.77
2024-05-09T22:40:43.354Z,10.00
2024-05-09T22:43:23.693Z,9.70
2024-05-09T22:45:54.908Z,9.80
2024-05-09T22:48:23.917Z,9.07
2024-05-09T22:50:51.692Z,10.03
2024-05-09T22:53:19.051Z,9.40
2024-05-09T22:55:46.101Z,10.10
2024-05-09T22:58:13.387Z,10.03
2024-05-09T23:00:40.545Z,9.40
2024-05-09T23:03:07.770Z,9.67
2024-05-09T23:05:34.992Z,9.50
2024-05-09T23:08:02.699Z,9.83
2024-05-09T23:10:35.750Z,9.57
2024-05-09T23:13:06.958Z,9.23
2024-05-09T23:15:34.963Z,9.10
2024-05-09T23:18:02.275Z,9.73
2024-05-09T23:20:36.515Z,9.43
2024-05-09T23:23:10.392Z,9.80
2024-05-09T23:25:38.988Z,9.53
2024-05-09T23:28:06.422Z,9.20
2024-05-09T23:30:38.333Z,10.60
2024-05-09T23:33:09.686Z,10.27
2024-05-09T23:35:37.339Z,9.70
2024-05-09T23:38:05.269Z,10.07
2024-05-09T23:43:03.737Z,9.73
2024-05-09T23:45:31.235Z,9.13
2024-05-09T23:47:58.573Z,9.43
2024-05-09T23:50:33.628Z,8.73
2024-05-09T23:53:03.915Z,9.70
2024-05-09T23:55:31.930Z,9.43
2024-05-09T23:57:59.844Z,9.17
